sensor_id;sensor_type;location;lat;lon;timestamp;P1;durP1;ratioP1;P2;durP2;ratioP2
38911;SDS011;28444;48.056;14.408;2022-07-05T00:01:34;3.15;;;2.17;;
38911;SDS011;28444;48.056;14.408;2022-07-05T00:04:01;4.75;;;2.08;;
38911;SDS011;28444;48.056;14.408;2022-07-05T00:06:27;8.02;;;1.80;;
38911;SDS011;28444;48.056;14.408;2022-07-05T00:08:54;2.60;;;2.17;;
38911;SDS011;28444;48.056;14.408;2022-07-05T00:11:21;3.83;;;1.88;;
38911;SDS011;28444;48.056;14.408;2022-07-05T00:13:48;9.32;;;2.53;;
38911;SDS011;28444;48.056;14.408;2022-07-05T00:16:14;4.00;;;2.58;;
38911;SDS011;28444;48.056;14.408;2022-07-05T00:18:41;4.10;;;2.15;;
38911;SDS011;28444;48.056;14.408;2022-07-05T00:21:09;4.25;;;2.50;;
38911;SDS011;28444;48.056;14.408;2022-07-05T00:23:35;2.50;;;2.30;;
38911;SDS011;28444;48.056;14.408;2022-07-05T00:26:02;15.18;;;3.75;;
38911;SDS011;28444;48.056;14.408;2022-07-05T00:28:29;3.40;;;2.40;;
38911;SDS011;28444;48.056;14.408;2022-07-05T00:30:56;5.82;;;2.58;;
38911;SDS011;28444;48.056;14.408;2022-07-05T00:33:23;4.28;;;2.40;;
38911;SDS011;28444;48.056;14.408;2022-07-05T00:35:49;3.25;;;2.47;;
38911;SDS011;28444;48.056;14.408;2022-07-05T00:38:16;6.22;;;2.42;;
38911;SDS011;28444;48.056;14.408;2022-07-05T00:40:43;3.15;;;1.98;;
38911;SDS011;28444;48.056;14.408;2022-07-05T00:43:10;2.92;;;1.80;;
38911;SDS011;28444;48.056;14.408;2022-07-05T00:45:37;2.22;;;2.03;;
38911;SDS011;28444;48.056;14.408;2022-07-05T00:48:04;3.65;;;2.00;;
38911;SDS011;28444;48.056;14.408;2022-07-05T00:50:31;2.75;;;1.90;;
38911;SDS011;28444;48.056;14.408;2022-07-05T00:52:57;4.60;;;1.90;;
38911;SDS011;28444;48.056;14.408;2022-07-05T00:55:26;2.80;;;1.77;;
38911;SDS011;28444;48.056;14.408;2022-07-05T00:57:52;4.70;;;1.58;;
38911;SDS011;28444;48.056;14.408;2022-07-05T01:00:20;3.80;;;1.80;;
38911;SDS011;28444;48.056;14.408;2022-07-05T01:02:47;2.78;;;1.42;;
38911;SDS011;28444;48.056;14.408;2022-07-05T01:05:15;2.65;;;1.58;;
38911;SDS011;28444;48.056;14.408;2022-07-05T01:07:42;1.95;;;1.60;;
38911;SDS011;28444;48.056;14.408;2022-07-05T01:10:09;1.92;;;1.20;;
38911;SDS011;28444;48.056;14.408;2022-07-05T01:12:37;2.40;;;1.73;;
38911;SDS011;28444;48.056;14.408;2022-07-05T01:15:05;4.18;;;1.50;;
38911;SDS011;28444;48.056;14.408;2022-07-05T01:17:34;3.22;;;1.50;;
38911;SDS011;28444;48.056;14.408;2022-07-05T01:20:04;1.92;;;1.15;;
38911;SDS011;28444;48.056;14.408;2022-07-05T01:22:34;2.85;;;1.30;;
38911;SDS011;28444;48.056;14.408;2022-07-05T01:25:17;3.53;;;1.10;;
38911;SDS011;28444;48.056;14.408;2022-07-05T01:27:45;0.73;;;0.73;;
38911;SDS011;28444;48.056;14.408;2022-07-05T01:30:14;2.42;;;1.20;;
38911;SDS011;28444;48.056;14.408;2022-07-05T01:32:41;1.20;;;1.00;;
38911;SDS011;28444;48.056;14.408;2022-07-05T01:35:09;1.38;;;1.00;;
38911;SDS011;28444;48.056;14.408;2022-07-05T01:37:37;1.10;;;1.00;;
38911;SDS011;28444;48.056;14.408;2022-07-05T01:40:04;4.47;;;0.98;;
38911;SDS011;28444;48.056;14.408;2022-07-05T01:42:32;1.25;;;0.88;;
38911;SDS011;28444;48.056;14.408;2022-07-05T01:44:59;1.52;;;0.90;;
38911;SDS011;28444;48.056;14.408;2022-07-05T01:47:26;1.40;;;1.10;;
38911;SDS011;28444;48.056;14.408;2022-07-05T01:49:53;5.47;;;1.00;;
38911;SDS011;28444;48.056;14.408;2022-07-05T01:52:23;1.20;;;1.00;;
38911;SDS011;28444;48.056;14.408;2022-07-05T01:54:53;1.63;;;1.00;;
38911;SDS011;28444;48.056;14.408;2022-07-05T01:57:20;1.27;;;1.08;;
38911;SDS011;28444;48.056;14.408;2022-07-05T01:59:46;1.33;;;0.90;;
38911;SDS011;28444;48.056;14.408;2022-07-05T02:02:13;2.78;;;0.88;;
38911;SDS011;28444;48.056;14.408;2022-07-05T02:04:46;2.17;;;1.20;;
38911;SDS011;28444;48.056;14.408;2022-07-05T02:07:13;1.00;;;0.93;;
38911;SDS011;28444;48.056;14.408;2022-07-05T02:09:40;2.35;;;1.10;;
38911;SDS011;28444;48.056;14.408;2022-07-05T02:12:07;19.05;;;1.77;;
38911;SDS011;28444;48.056;14.408;2022-07-05T02:14:35;1.77;;;0.93;;
38911;SDS011;28444;48.056;14.408;2022-07-05T02:17:02;1.70;;;1.13;;
38911;SDS011;28444;48.056;14.408;2022-07-05T02:19:29;1.08;;;0.80;;
38911;SDS011;28444;48.056;14.408;2022-07-05T02:21:55;2.53;;;1.00;;
38911;SDS011;28444;48.056;14.408;2022-07-05T02:24:22;2.35;;;1.13;;
38911;SDS011;28444;48.056;14.408;2022-07-05T02:26:49;2.92;;;1.10;;
38911;SDS011;28444;48.056;14.408;2022-07-05T02:29:16;1.65;;;1.02;;
38911;SDS011;28444;48.056;14.408;2022-07-05T02:31:43;1.60;;;1.00;;
38911;SDS011;28444;48.056;14.408;2022-07-05T02:34:10;2.03;;;0.93;;
38911;SDS011;28444;48.056;14.408;2022-07-05T02:36:37;1.65;;;1.02;;
38911;SDS011;28444;48.056;14.408;2022-07-05T02:39:04;4.05;;;1.35;;
38911;SDS011;28444;48.056;14.408;2022-07-05T02:41:31;3.42;;;0.80;;
38911;SDS011;28444;48.056;14.408;2022-07-05T02:43:57;0.90;;;0.68;;
38911;SDS011;28444;48.056;14.408;2022-07-05T02:46:24;2.15;;;0.90;;
38911;SDS011;28444;48.056;14.408;2022-07-05T02:48:51;4.45;;;1.23;;
38911;SDS011;28444;48.056;14.408;2022-07-05T02:51:24;1.17;;;0.90;;
38911;SDS011;28444;48.056;14.408;2022-07-05T02:53:51;1.25;;;1.15;;
38911;SDS011;28444;48.056;14.408;2022-07-05T02:56:17;1.05;;;1.00;;
38911;SDS011;28444;48.056;14.408;2022-07-05T02:58:44;2.75;;;1.20;;
38911;SDS011;28444;48.056;14.408;2022-07-05T03:01:11;5.25;;;1.48;;
38911;SDS011;28444;48.056;14.408;2022-07-05T03:03:38;3.17;;;1.65;;
38911;SDS011;28444;48.056;14.408;2022-07-05T03:06:05;4.95;;;2.40;;
38911;SDS011;28444;48.056;14.408;2022-07-05T03:08:31;3.20;;;1.42;;
38911;SDS011;28444;48.056;14.408;2022-07-05T03:10:58;1.90;;;1.48;;
38911;SDS011;28444;48.056;14.408;2022-07-05T03:13:26;1.90;;;1.27;;
38911;SDS011;28444;48.056;14.408;2022-07-05T03:15:53;4.45;;;1.27;;
38911;SDS011;28444;48.056;14.408;2022-07-05T03:18:20;3.08;;;1.30;;
38911;SDS011;28444;48.056;14.408;2022-07-05T03:20:47;1.65;;;1.40;;
38911;SDS011;28444;48.056;14.408;2022-07-05T03:23:13;3.95;;;1.80;;
38911;SDS011;28444;48.056;14.408;2022-07-05T03:25:40;5.18;;;1.85;;
38911;SDS011;28444;48.056;14.408;2022-07-05T03:28:07;6.45;;;1.50;;
38911;SDS011;28444;48.056;14.408;2022-07-05T03:30:33;2.72;;;1.70;;
38911;SDS011;28444;48.056;14.408;2022-07-05T03:33:00;1.80;;;1.40;;
38911;SDS011;28444;48.056;14.408;2022-07-05T03:35:27;2.42;;;1.17;;
38911;SDS011;28444;48.056;14.408;2022-07-05T03:37:54;3.35;;;1.77;;
38911;SDS011;28444;48.056;14.408;2022-07-05T03:40:21;2.22;;;1.42;;
38911;SDS011;28444;48.056;14.408;2022-07-05T03:42:47;1.85;;;1.48;;
38911;SDS011;28444;48.056;14.408;2022-07-05T03:45:14;3.38;;;1.10;;
38911;SDS011;28444;48.056;14.408;2022-07-05T03:47:41;2.50;;;1.33;;
38911;SDS011;28444;48.056;14.408;2022-07-05T03:50:08;2.58;;;1.23;;
38911;SDS011;28444;48.056;14.408;2022-07-05T03:52:35;1.55;;;0.90;;
38911;SDS011;28444;48.056;14.408;2022-07-05T03:55:01;2.83;;;1.20;;
38911;SDS011;28444;48.056;14.408;2022-07-05T03:57:29;3.03;;;1.33;;
38911;SDS011;28444;48.056;14.408;2022-07-05T03:59:56;3.53;;;1.00;;
38911;SDS011;28444;48.056;14.408;2022-07-05T04:02:22;1.83;;;1.15;;
38911;SDS011;28444;48.056;14.408;2022-07-05T04:04:49;1.35;;;0.88;;
38911;SDS011;28444;48.056;14.408;2022-07-05T04:07:16;18.15;;;1.75;;
38911;SDS011;28444;48.056;14.408;2022-07-05T04:09:42;4.90;;;1.15;;
38911;SDS011;28444;48.056;14.408;2022-07-05T04:12:10;2.33;;;0.88;;
38911;SDS011;28444;48.056;14.408;2022-07-05T04:14:36;2.85;;;1.17;;
38911;SDS011;28444;48.056;14.408;2022-07-05T04:17:03;2.83;;;0.82;;
38911;SDS011;28444;48.056;14.408;2022-07-05T04:19:30;3.72;;;0.90;;
38911;SDS011;28444;48.056;14.408;2022-07-05T04:21:57;1.38;;;0.90;;
38911;SDS011;28444;48.056;14.408;2022-07-05T04:24:23;2.30;;;0.75;;
38911;SDS011;28444;48.056;14.408;2022-07-05T04:26:50;3.72;;;1.27;;
38911;SDS011;28444;48.056;14.408;2022-07-05T04:29:17;2.05;;;0.80;;
38911;SDS011;28444;48.056;14.408;2022-07-05T04:31:44;2.70;;;0.70;;
38911;SDS011;28444;48.056;14.408;2022-07-05T04:34:11;2.20;;;1.08;;
38911;SDS011;28444;48.056;14.408;2022-07-05T04:36:38;2.78;;;1.10;;
38911;SDS011;28444;48.056;14.408;2022-07-05T04:39:07;2.25;;;0.90;;
38911;SDS011;28444;48.056;14.408;2022-07-05T04:41:34;3.13;;;1.00;;
38911;SDS011;28444;48.056;14.408;2022-07-05T04:44:01;1.63;;;0.93;;
38911;SDS011;28444;48.056;14.408;2022-07-05T04:46:28;2.17;;;1.10;;
38911;SDS011;28444;48.056;14.408;2022-07-05T04:48:55;0.50;;;0.50;;
38911;SDS011;28444;48.056;14.408;2022-07-05T04:51:22;2.47;;;1.20;;
38911;SDS011;28444;48.056;14.408;2022-07-05T04:53:48;2.75;;;0.75;;
38911;SDS011;28444;48.056;14.408;2022-07-05T04:56:15;0.55;;;0.43;;
38911;SDS011;28444;48.056;14.408;2022-07-05T04:58:43;2.00;;;0.60;;
38911;SDS011;28444;48.056;14.408;2022-07-05T05:01:10;2.75;;;0.68;;
38911;SDS011;28444;48.056;14.408;2022-07-05T05:03:37;1.23;;;0.80;;
38911;SDS011;28444;48.056;14.408;2022-07-05T05:06:03;2.38;;;0.80;;
38911;SDS011;28444;48.056;14.408;2022-07-05T05:08:30;2.42;;;0.90;;
38911;SDS011;28444;48.056;14.408;2022-07-05T05:10:57;0.80;;;0.65;;
38911;SDS011;28444;48.056;14.408;2022-07-05T05:13:24;3.88;;;1.05;;
38911;SDS011;28444;48.056;14.408;2022-07-05T05:15:50;1.65;;;0.60;;
38911;SDS011;28444;48.056;14.408;2022-07-05T05:18:17;3.15;;;1.30;;
38911;SDS011;28444;48.056;14.408;2022-07-05T05:20:45;2.95;;;0.80;;
38911;SDS011;28444;48.056;14.408;2022-07-05T05:23:12;4.95;;;0.90;;
38911;SDS011;28444;48.056;14.408;2022-07-05T05:25:39;3.47;;;0.85;;
38911;SDS011;28444;48.056;14.408;2022-07-05T05:28:05;3.30;;;0.70;;
38911;SDS011;28444;48.056;14.408;2022-07-05T05:30:32;1.15;;;1.00;;
38911;SDS011;28444;48.056;14.408;2022-07-05T05:32:59;4.65;;;0.70;;
38911;SDS011;28444;48.056;14.408;2022-07-05T05:35:26;1.40;;;1.27;;
38911;SDS011;28444;48.056;14.408;2022-07-05T05:37:53;4.07;;;0.80;;
38911;SDS011;28444;48.056;14.408;2022-07-05T05:40:22;0.85;;;0.60;;
38911;SDS011;28444;48.056;14.408;2022-07-05T05:42:51;1.65;;;0.80;;
38911;SDS011;28444;48.056;14.408;2022-07-05T05:45:19;3.15;;;0.95;;
38911;SDS011;28444;48.056;14.408;2022-07-05T05:47:47;3.67;;;1.00;;
38911;SDS011;28444;48.056;14.408;2022-07-05T05:50:24;1.30;;;0.80;;
38911;SDS011;28444;48.056;14.408;2022-07-05T05:52:52;2.67;;;1.10;;
38911;SDS011;28444;48.056;14.408;2022-07-05T05:55:19;3.00;;;0.93;;
38911;SDS011;28444;48.056;14.408;2022-07-05T05:57:47;1.10;;;1.00;;
38911;SDS011;28444;48.056;14.408;2022-07-05T06:00:14;2.67;;;1.00;;
38911;SDS011;28444;48.056;14.408;2022-07-05T06:02:44;2.58;;;0.90;;
38911;SDS011;28444;48.056;14.408;2022-07-05T06:05:13;1.50;;;1.00;;
38911;SDS011;28444;48.056;14.408;2022-07-05T06:07:53;2.95;;;0.90;;
38911;SDS011;28444;48.056;14.408;2022-07-05T06:10:25;3.58;;;1.23;;
38911;SDS011;28444;48.056;14.408;2022-07-05T06:12:56;11.43;;;1.65;;
38911;SDS011;28444;48.056;14.408;2022-07-05T06:15:23;13.27;;;1.77;;
38911;SDS011;28444;48.056;14.408;2022-07-05T06:17:50;8.80;;;1.92;;
38911;SDS011;28444;48.056;14.408;2022-07-05T06:20:18;4.80;;;1.15;;
38911;SDS011;28444;48.056;14.408;2022-07-05T06:22:47;4.60;;;1.30;;
38911;SDS011;28444;48.056;14.408;2022-07-05T06:25:14;5.68;;;1.15;;
38911;SDS011;28444;48.056;14.408;2022-07-05T06:27:56;3.83;;;1.27;;
38911;SDS011;28444;48.056;14.408;2022-07-05T06:30:28;1.05;;;1.00;;
38911;SDS011;28444;48.056;14.408;2022-07-05T06:32:56;1.98;;;1.17;;
38911;SDS011;28444;48.056;14.408;2022-07-05T06:35:24;2.30;;;1.20;;
38911;SDS011;28444;48.056;14.408;2022-07-05T06:37:57;2.92;;;1.60;;
38911;SDS011;28444;48.056;14.408;2022-07-05T06:40:25;8.52;;;1.77;;
38911;SDS011;28444;48.056;14.408;2022-07-05T06:42:55;1.63;;;1.20;;
38911;SDS011;28444;48.056;14.408;2022-07-05T06:45:23;3.28;;;1.70;;
38911;SDS011;28444;48.056;14.408;2022-07-05T06:47:54;3.03;;;1.50;;
38911;SDS011;28444;48.056;14.408;2022-07-05T06:50:25;4.10;;;1.13;;
38911;SDS011;28444;48.056;14.408;2022-07-05T06:52:53;6.50;;;1.35;;
38911;SDS011;28444;48.056;14.408;2022-07-05T06:55:20;3.70;;;1.67;;
38911;SDS011;28444;48.056;14.408;2022-07-05T06:57:48;1.90;;;1.45;;
38911;SDS011;28444;48.056;14.408;2022-07-05T07:00:34;3.38;;;1.70;;
38911;SDS011;28444;48.056;14.408;2022-07-05T07:03:21;3.95;;;1.42;;
38911;SDS011;28444;48.056;14.408;2022-07-05T07:06:08;6.70;;;1.80;;
38911;SDS011;28444;48.056;14.408;2022-07-05T07:08:35;2.83;;;1.70;;
38911;SDS011;28444;48.056;14.408;2022-07-05T07:11:20;4.70;;;1.42;;
38911;SDS011;28444;48.056;14.408;2022-07-05T07:13:47;2.30;;;2.00;;
38911;SDS011;28444;48.056;14.408;2022-07-05T07:16:14;1.95;;;1.58;;
38911;SDS011;28444;48.056;14.408;2022-07-05T07:18:41;4.95;;;1.75;;
38911;SDS011;28444;48.056;14.408;2022-07-05T07:21:27;5.53;;;2.00;;
38911;SDS011;28444;48.056;14.408;2022-07-05T07:23:54;3.60;;;1.75;;
38911;SDS011;28444;48.056;14.408;2022-07-05T07:26:21;6.32;;;1.90;;
38911;SDS011;28444;48.056;14.408;2022-07-05T07:28:48;4.50;;;1.52;;
38911;SDS011;28444;48.056;14.408;2022-07-05T07:31:14;1.55;;;1.45;;
38911;SDS011;28444;48.056;14.408;2022-07-05T07:33:41;3.53;;;1.75;;
38911;SDS011;28444;48.056;14.408;2022-07-05T07:36:10;6.68;;;1.50;;
38911;SDS011;28444;48.056;14.408;2022-07-05T07:38:41;1.40;;;1.30;;
38911;SDS011;28444;48.056;14.408;2022-07-05T07:41:08;2.20;;;1.73;;
38911;SDS011;28444;48.056;14.408;2022-07-05T07:43:35;2.05;;;1.65;;
38911;SDS011;28444;48.056;14.408;2022-07-05T07:46:01;1.42;;;1.23;;
38911;SDS011;28444;48.056;14.408;2022-07-05T07:48:29;2.95;;;1.52;;
38911;SDS011;28444;48.056;14.408;2022-07-05T07:50:55;2.95;;;1.08;;
38911;SDS011;28444;48.056;14.408;2022-07-05T07:53:22;4.55;;;1.77;;
38911;SDS011;28444;48.056;14.408;2022-07-05T07:55:49;6.00;;;1.42;;
38911;SDS011;28444;48.056;14.408;2022-07-05T07:58:16;3.00;;;1.67;;
38911;SDS011;28444;48.056;14.408;2022-07-05T08:00:43;3.33;;;1.50;;
38911;SDS011;28444;48.056;14.408;2022-07-05T08:03:10;2.92;;;1.60;;
38911;SDS011;28444;48.056;14.408;2022-07-05T08:05:38;3.08;;;1.67;;
38911;SDS011;28444;48.056;14.408;2022-07-05T08:08:05;3.58;;;1.70;;
38911;SDS011;28444;48.056;14.408;2022-07-05T08:10:32;1.60;;;1.33;;
38911;SDS011;28444;48.056;14.408;2022-07-05T08:12:58;1.70;;;1.50;;
38911;SDS011;28444;48.056;14.408;2022-07-05T08:15:25;2.03;;;1.38;;
38911;SDS011;28444;48.056;14.408;2022-07-05T08:17:52;2.35;;;1.75;;
38911;SDS011;28444;48.056;14.408;2022-07-05T08:20:37;3.38;;;1.52;;
38911;SDS011;28444;48.056;14.408;2022-07-05T08:23:23;3.92;;;1.77;;
38911;SDS011;28444;48.056;14.408;2022-07-05T08:25:57;4.53;;;1.80;;
38911;SDS011;28444;48.056;14.408;2022-07-05T08:28:23;3.08;;;1.45;;
38911;SDS011;28444;48.056;14.408;2022-07-05T08:30:52;5.85;;;1.75;;
38911;SDS011;28444;48.056;14.408;2022-07-05T08:33:19;3.50;;;2.15;;
38911;SDS011;28444;48.056;14.408;2022-07-05T08:35:47;3.50;;;2.10;;
38911;SDS011;28444;48.056;14.408;2022-07-05T08:38:14;2.95;;;1.95;;
38911;SDS011;28444;48.056;14.408;2022-07-05T08:40:42;3.50;;;2.55;;
38911;SDS011;28444;48.056;14.408;2022-07-05T08:43:11;2.08;;;1.88;;
38911;SDS011;28444;48.056;14.408;2022-07-05T08:45:44;7.63;;;1.90;;
38911;SDS011;28444;48.056;14.408;2022-07-05T08:48:11;3.97;;;1.90;;
38911;SDS011;28444;48.056;14.408;2022-07-05T08:50:41;3.97;;;1.98;;
38911;SDS011;28444;48.056;14.408;2022-07-05T08:53:08;5.35;;;1.70;;
38911;SDS011;28444;48.056;14.408;2022-07-05T08:55:35;2.13;;;1.85;;
38911;SDS011;28444;48.056;14.408;2022-07-05T08:58:02;3.72;;;2.10;;
38911;SDS011;28444;48.056;14.408;2022-07-05T09:00:29;3.88;;;1.98;;
38911;SDS011;28444;48.056;14.408;2022-07-05T09:02:56;3.85;;;2.30;;
38911;SDS011;28444;48.056;14.408;2022-07-05T09:05:23;3.85;;;2.08;;
38911;SDS011;28444;48.056;14.408;2022-07-05T09:07:59;5.60;;;2.80;;
38911;SDS011;28444;48.056;14.408;2022-07-05T09:10:27;5.43;;;2.60;;
38911;SDS011;28444;48.056;14.408;2022-07-05T09:12:56;4.13;;;2.30;;
38911;SDS011;28444;48.056;14.408;2022-07-05T09:15:23;2.42;;;2.10;;
38911;SDS011;28444;48.056;14.408;2022-07-05T09:17:50;5.00;;;2.17;;
38911;SDS011;28444;48.056;14.408;2022-07-05T09:20:18;4.45;;;1.90;;
38911;SDS011;28444;48.056;14.408;2022-07-05T09:22:47;5.25;;;2.28;;
38911;SDS011;28444;48.056;14.408;2022-07-05T09:25:30;2.17;;;1.77;;
38911;SDS011;28444;48.056;14.408;2022-07-05T09:27:58;2.90;;;1.83;;
38911;SDS011;28444;48.056;14.408;2022-07-05T09:33:13;4.47;;;2.25;;
38911;SDS011;28444;48.056;14.408;2022-07-05T09:35:51;3.90;;;2.15;;
38911;SDS011;28444;48.056;14.408;2022-07-05T09:38:26;4.93;;;2.10;;
38911;SDS011;28444;48.056;14.408;2022-07-05T09:40:54;7.05;;;2.78;;
38911;SDS011;28444;48.056;14.408;2022-07-05T09:43:23;3.75;;;2.33;;
38911;SDS011;28444;48.056;14.408;2022-07-05T09:46:02;4.75;;;2.10;;
38911;SDS011;28444;48.056;14.408;2022-07-05T09:48:30;10.88;;;2.35;;
38911;SDS011;28444;48.056;14.408;2022-07-05T09:51:11;2.85;;;2.45;;
38911;SDS011;28444;48.056;14.408;2022-07-05T09:53:59;2.40;;;1.60;;
38911;SDS011;28444;48.056;14.408;2022-07-05T09:56:42;9.68;;;2.35;;
38911;SDS011;28444;48.056;14.408;2022-07-05T09:59:16;5.28;;;1.90;;
38911;SDS011;28444;48.056;14.408;2022-07-05T10:01:46;2.80;;;1.80;;
38911;SDS011;28444;48.056;14.408;2022-07-05T10:04:13;2.88;;;1.75;;
38911;SDS011;28444;48.056;14.408;2022-07-05T10:06:41;5.38;;;1.80;;
38911;SDS011;28444;48.056;14.408;2022-07-05T10:09:09;3.03;;;2.03;;
38911;SDS011;28444;48.056;14.408;2022-07-05T10:11:40;2.40;;;1.50;;
38911;SDS011;28444;48.056;14.408;2022-07-05T10:14:10;4.03;;;1.92;;
38911;SDS011;28444;48.056;14.408;2022-07-05T10:16:40;6.60;;;1.77;;
38911;SDS011;28444;48.056;14.408;2022-07-05T10:19:13;2.05;;;1.85;;
38911;SDS011;28444;48.056;14.408;2022-07-05T10:21:44;4.35;;;1.77;;
38911;SDS011;28444;48.056;14.408;2022-07-05T10:24:33;5.68;;;1.95;;
38911;SDS011;28444;48.056;14.408;2022-07-05T10:27:01;3.47;;;2.10;;
38911;SDS011;28444;48.056;14.408;2022-07-05T10:29:32;4.43;;;1.88;;
38911;SDS011;28444;48.056;14.408;2022-07-05T10:32:01;6.13;;;2.00;;
38911;SDS011;28444;48.056;14.408;2022-07-05T10:34:29;4.18;;;1.90;;
38911;SDS011;28444;48.056;14.408;2022-07-05T10:37:18;3.88;;;2.00;;
38911;SDS011;28444;48.056;14.408;2022-07-05T10:39:45;3.00;;;1.90;;
38911;SDS011;28444;48.056;14.408;2022-07-05T10:42:12;3.25;;;2.25;;
38911;SDS011;28444;48.056;14.408;2022-07-05T10:44:40;3.50;;;1.85;;
38911;SDS011;28444;48.056;14.408;2022-07-05T10:47:10;3.50;;;1.92;;
38911;SDS011;28444;48.056;14.408;2022-07-05T10:49:38;4.22;;;1.85;;
38911;SDS011;28444;48.056;14.408;2022-07-05T10:52:22;5.78;;;2.30;;
38911;SDS011;28444;48.056;14.408;2022-07-05T11:04:07;3.38;;;1.80;;
38911;SDS011;28444;48.056;14.408;2022-07-05T11:12:01;3.10;;;2.40;;
38911;SDS011;28444;48.056;14.408;2022-07-05T11:14:51;3.47;;;2.47;;
38911;SDS011;28444;48.056;14.408;2022-07-05T11:17:18;3.20;;;2.20;;
38911;SDS011;28444;48.056;14.408;2022-07-05T11:20:30;2.92;;;2.63;;
38911;SDS011;28444;48.056;14.408;2022-07-05T11:23:05;3.63;;;3.00;;
38911;SDS011;28444;48.056;14.408;2022-07-05T11:25:35;5.28;;;2.53;;
38911;SDS011;28444;48.056;14.408;2022-07-05T11:28:08;5.25;;;2.70;;
38911;SDS011;28444;48.056;14.408;2022-07-05T11:30:49;4.25;;;2.50;;
38911;SDS011;28444;48.056;14.408;2022-07-05T11:33:28;3.97;;;2.45;;
38911;SDS011;28444;48.056;14.408;2022-07-05T11:35:59;3.17;;;2.13;;
38911;SDS011;28444;48.056;14.408;2022-07-05T11:38:27;2.50;;;2.10;;
38911;SDS011;28444;48.056;14.408;2022-07-05T11:41:14;8.95;;;2.53;;
38911;SDS011;28444;48.056;14.408;2022-07-05T11:43:41;3.35;;;2.33;;
38911;SDS011;28444;48.056;14.408;2022-07-05T11:46:09;2.20;;;1.90;;
38911;SDS011;28444;48.056;14.408;2022-07-05T11:48:55;2.50;;;2.22;;
38911;SDS011;28444;48.056;14.408;2022-07-05T11:51:22;4.25;;;2.15;;
38911;SDS011;28444;48.056;14.408;2022-07-05T11:53:49;5.80;;;2.90;;
38911;SDS011;28444;48.056;14.408;2022-07-05T11:56:36;4.50;;;2.58;;
38911;SDS011;28444;48.056;14.408;2022-07-05T11:59:19;5.28;;;2.30;;
38911;SDS011;28444;48.056;14.408;2022-07-05T12:01:47;5.75;;;2.67;;
38911;SDS011;28444;48.056;14.408;2022-07-05T12:04:20;2.55;;;2.30;;
38911;SDS011;28444;48.056;14.408;2022-07-05T12:06:55;3.28;;;2.40;;
38911;SDS011;28444;48.056;14.408;2022-07-05T12:09:26;12.02;;;2.65;;
38911;SDS011;28444;48.056;14.408;2022-07-05T12:11:55;2.75;;;2.20;;
38911;SDS011;28444;48.056;14.408;2022-07-05T12:14:48;5.30;;;2.47;;
38911;SDS011;28444;48.056;14.408;2022-07-05T12:17:17;7.55;;;2.88;;
38911;SDS011;28444;48.056;14.408;2022-07-05T12:19:51;6.20;;;3.13;;
38911;SDS011;28444;48.056;14.408;2022-07-05T12:22:27;2.85;;;2.60;;
38911;SDS011;28444;48.056;14.408;2022-07-05T12:24:58;8.88;;;2.50;;
38911;SDS011;28444;48.056;14.408;2022-07-05T12:27:26;3.00;;;2.55;;
38911;SDS011;28444;48.056;14.408;2022-07-05T12:29:54;4.53;;;2.28;;
38911;SDS011;28444;48.056;14.408;2022-07-05T12:32:22;2.70;;;2.50;;
38911;SDS011;28444;48.056;14.408;2022-07-05T12:34:49;12.85;;;2.20;;
38911;SDS011;28444;48.056;14.408;2022-07-05T12:37:20;3.78;;;2.10;;
38911;SDS011;28444;48.056;14.408;2022-07-05T12:40:01;7.90;;;2.65;;
38911;SDS011;28444;48.056;14.408;2022-07-05T12:42:33;4.70;;;2.58;;
38911;SDS011;28444;48.056;14.408;2022-07-05T12:45:14;3.60;;;2.70;;
38911;SDS011;28444;48.056;14.408;2022-07-05T12:50:15;3.28;;;2.25;;
38911;SDS011;28444;48.056;14.408;2022-07-05T12:53:02;6.75;;;2.67;;
38911;SDS011;28444;48.056;14.408;2022-07-05T12:55:58;5.38;;;2.70;;
38911;SDS011;28444;48.056;14.408;2022-07-05T12:58:53;2.13;;;2.00;;
38911;SDS011;28444;48.056;14.408;2022-07-05T13:01:25;3.88;;;2.22;;
38911;SDS011;28444;48.056;14.408;2022-07-05T13:06:54;3.55;;;2.80;;
38911;SDS011;28444;48.056;14.408;2022-07-05T13:09:36;4.30;;;2.30;;
38911;SDS011;28444;48.056;14.408;2022-07-05T13:12:11;4.88;;;2.55;;
38911;SDS011;28444;48.056;14.408;2022-07-05T13:14:51;2.17;;;1.98;;
38911;SDS011;28444;48.056;14.408;2022-07-05T13:17:22;2.30;;;2.05;;
38911;SDS011;28444;48.056;14.408;2022-07-05T13:19:51;2.40;;;2.20;;
38911;SDS011;28444;48.056;14.408;2022-07-05T13:22:18;9.35;;;2.60;;
38911;SDS011;28444;48.056;14.408;2022-07-05T13:24:45;7.97;;;2.55;;
38911;SDS011;28444;48.056;14.408;2022-07-05T13:27:12;3.20;;;2.20;;
38911;SDS011;28444;48.056;14.408;2022-07-05T13:29:40;2.78;;;2.17;;
38911;SDS011;28444;48.056;14.408;2022-07-05T13:32:07;3.50;;;2.60;;
38911;SDS011;28444;48.056;14.408;2022-07-05T13:34:34;5.75;;;2.20;;
38911;SDS011;28444;48.056;14.408;2022-07-05T13:37:01;3.85;;;2.55;;
38911;SDS011;28444;48.056;14.408;2022-07-05T13:39:28;8.07;;;2.63;;
38911;SDS011;28444;48.056;14.408;2022-07-05T13:41:56;3.97;;;2.22;;
38911;SDS011;28444;48.056;14.408;2022-07-05T13:44:23;2.40;;;2.20;;
38911;SDS011;28444;48.056;14.408;2022-07-05T13:46:50;2.88;;;2.03;;
38911;SDS011;28444;48.056;14.408;2022-07-05T13:49:17;6.53;;;2.60;;
38911;SDS011;28444;48.056;14.408;2022-07-05T13:51:44;6.65;;;2.22;;
38911;SDS011;28444;48.056;14.408;2022-07-05T13:54:10;4.78;;;2.03;;
38911;SDS011;28444;48.056;14.408;2022-07-05T13:56:37;6.18;;;2.05;;
38911;SDS011;28444;48.056;14.408;2022-07-05T13:59:04;7.28;;;2.40;;
38911;SDS011;28444;48.056;14.408;2022-07-05T14:01:31;6.20;;;1.90;;
38911;SDS011;28444;48.056;14.408;2022-07-05T14:03:59;2.50;;;2.08;;
38911;SDS011;28444;48.056;14.408;2022-07-05T14:06:29;7.18;;;2.92;;
38911;SDS011;28444;48.056;14.408;2022-07-05T14:08:57;7.55;;;2.70;;
38911;SDS011;28444;48.056;14.408;2022-07-05T14:11:24;5.85;;;3.30;;
38911;SDS011;28444;48.056;14.408;2022-07-05T14:13:53;5.15;;;3.10;;
38911;SDS011;28444;48.056;14.408;2022-07-05T14:16:23;5.68;;;3.13;;
38911;SDS011;28444;48.056;14.408;2022-07-05T14:18:50;7.65;;;3.25;;
38911;SDS011;28444;48.056;14.408;2022-07-05T14:21:19;6.15;;;3.38;;
38911;SDS011;28444;48.056;14.408;2022-07-05T14:23:58;5.55;;;2.90;;
38911;SDS011;28444;48.056;14.408;2022-07-05T14:26:25;5.68;;;3.42;;
38911;SDS011;28444;48.056;14.408;2022-07-05T14:28:54;10.48;;;3.42;;
38911;SDS011;28444;48.056;14.408;2022-07-05T14:31:21;4.57;;;2.90;;
38911;SDS011;28444;48.056;14.408;2022-07-05T14:33:48;3.58;;;3.28;;
38911;SDS011;28444;48.056;14.408;2022-07-05T14:36:16;8.38;;;4.15;;
38911;SDS011;28444;48.056;14.408;2022-07-05T14:38:44;8.52;;;3.95;;
38911;SDS011;28444;48.056;14.408;2022-07-05T14:41:10;5.40;;;3.42;;
38911;SDS011;28444;48.056;14.408;2022-07-05T14:43:37;4.15;;;3.50;;
38911;SDS011;28444;48.056;14.408;2022-07-05T14:46:04;7.07;;;3.30;;
38911;SDS011;28444;48.056;14.408;2022-07-05T14:48:34;5.07;;;3.70;;
38911;SDS011;28444;48.056;14.408;2022-07-05T14:51:01;6.22;;;3.65;;
38911;SDS011;28444;48.056;14.408;2022-07-05T14:53:27;6.15;;;3.97;;
38911;SDS011;28444;48.056;14.408;2022-07-05T14:55:54;7.90;;;3.63;;
38911;SDS011;28444;48.056;14.408;2022-07-05T14:58:22;3.45;;;3.15;;
38911;SDS011;28444;48.056;14.408;2022-07-05T15:00:48;4.55;;;3.58;;
38911;SDS011;28444;48.056;14.408;2022-07-05T15:03:15;4.55;;;3.33;;
38911;SDS011;28444;48.056;14.408;2022-07-05T15:05:43;7.57;;;3.67;;
38911;SDS011;28444;48.056;14.408;2022-07-05T15:08:09;3.40;;;3.10;;
38911;SDS011;28444;48.056;14.408;2022-07-05T15:10:36;8.45;;;3.80;;